Time;durP1;ratioP1;P1;durP2;ratioP2;P2;SDS_P1;SDS_P2;PMS_P1;PMS_P2;Temp;Humidity;BMP_temperature;BMP_pressure;BME280_temperature;BME280_humidity;BME280_pressure;Samples;Min_cycle;Max_cycle;Signal;HPM_P1;HPM_P2
2024/01/23 00:01:33;;;;;;;;;;;;;;;5.27;100.00;100210.22;5034287;28;19924;-82
2024/01/23 00:04:02;;;;;;;;;;;;;;;5.28;100.00;100214.56;5054326;28;19929;-79
2024/01/23 00:06:30;;;;;;;;;;;;;;;5.22;100.00;100211.00;5032850;28;19943;-81
2024/01/23 00:09:04;;;;;;;;;;;;;;;5.20;100.00;100210.44;5036181;28;19925;-82
2024/01/23 00:11:32;;;;;;;;;;;;;;;5.18;100.00;100215.28;5020427;28;19925;-82
2024/01/23 00:14:00;;;;;;;;;;;;;;;5.17;100.00;100216.34;5027877;28;20353;-82
2024/01/23 00:16:28;;;;;;;;;;;;;;;5.28;100.00;100209.16;5035512;28;19935;-79
2024/01/23 00:19:03;;;;;;;;;;;;;;;5.24;100.00;100208.84;5038579;28;19929;-79
2024/01/23 00:21:31;;;;;;;;;;;;;;;5.28;100.00;100212.66;5034862;28;20579;-81
2024/01/23 00:23:58;;;;;;;;;;;;;;;5.28;100.00;100215.38;5035632;28;20365;-81
2024/01/23 00:26:26;;;;;;;;;;;;;;;5.29;100.00;100205.41;5037457;28;20277;-80
2024/01/23 00:28:54;;;;;;;;;;;;;;;5.32;100.00;100217.53;5035969;28;19940;-82
2024/01/23 00:31:27;;;;;;;;;;;;;;;5.37;100.00;100217.59;5033260;28;20441;-81
2024/01/23 00:34:00;;;;;;;;;;;;;;;5.33;100.00;100208.38;5035873;28;19992;-82
2024/01/23 00:36:30;;;;;;;;;;;;;;;5.24;100.00;100203.47;5037306;28;19929;-82
2024/01/23 00:38:57;;;;;;;;;;;;;;;5.37;100.00;100213.03;5038218;28;20293;-82
2024/01/23 00:41:31;;;;;;;;;;;;;;;5.33;100.00;100214.63;5053673;28;19925;-82
2024/01/23 00:44:00;;;;;;;;;;;;;;;5.38;100.00;100219.25;5035477;28;19936;-81
2024/01/23 00:46:32;;;;;;;;;;;;;;;5.30;100.00;100220.50;5037681;28;20289;-82
2024/01/23 00:49:05;;;;;;;;;;;;;;;5.30;100.00;100215.09;5045896;28;19921;-81
2024/01/23 00:51:35;;;;;;;;;;;;;;;5.37;100.00;100206.81;5043184;28;20334;-81
2024/01/23 00:54:08;;;;;;;;;;;;;;;5.41;100.00;100218.72;5031984;28;19921;-81
2024/01/23 00:56:36;;;;;;;;;;;;;;;5.44;100.00;100212.81;5040362;28;20285;-81
2024/01/23 00:59:10;;;;;;;;;;;;;;;5.44;100.00;100226.28;5038869;28;19925;-82
2024/01/23 01:01:42;;;;;;;;;;;;;;;5.41;100.00;100227.66;5035591;28;20401;-81
2024/01/23 01:04:10;;;;;;;;;;;;;;;5.45;100.00;100225.22;5041290;28;19921;-82
2024/01/23 01:06:45;;;;;;;;;;;;;;;5.45;100.00;100214.44;5043646;28;19928;-82
2024/01/23 01:09:13;;;;;;;;;;;;;;;5.33;100.00;100224.59;5048721;28;20304;-82
2024/01/23 01:11:46;;;;;;;;;;;;;;;5.40;100.00;100225.19;5044403;28;19921;-81
2024/01/23 01:14:19;;;;;;;;;;;;;;;5.47;100.00;100222.28;5040846;28;19920;-81
2024/01/23 01:16:52;;;;;;;;;;;;;;;5.50;100.00;100211.78;5041209;28;19935;-80
2024/01/23 01:19:20;;;;;;;;;;;;;;;5.40;100.00;100214.38;5036415;28;19925;-80
2024/01/23 01:21:54;;;;;;;;;;;;;;;5.49;100.00;100218.25;5038538;28;19928;-81
2024/01/23 01:24:27;;;;;;;;;;;;;;;5.38;100.00;100220.03;5026416;28;19925;-82
2024/01/23 01:27:00;;;;;;;;;;;;;;;5.43;100.00;100243.56;5040403;28;19925;-82
2024/01/23 01:29:29;;;;;;;;;;;;;;;5.37;100.00;100326.38;5042918;28;19921;-80
2024/01/23 01:32:02;;;;;;;;;;;;;;;3.10;100.00;100330.22;5041875;28;19943;-81
2024/01/23 01:34:31;;;;;;;;;;;;;;;3.02;100.00;100320.63;5024620;28;20445;-81
2024/01/23 01:37:06;;;;;;;;;;;;;;;3.18;100.00;100288.69;5022745;28;19925;-80
2024/01/23 01:39:38;;;;;;;;;;;;;;;3.16;100.00;100288.09;5041111;28;19932;-81
2024/01/23 01:42:11;;;;;;;;;;;;;;;3.26;100.00;100280.25;5025140;28;19931;-82
2024/01/23 01:44:44;;;;;;;;;;;;;;;3.30;100.00;100284.09;5024527;28;20367;-81
2024/01/23 01:47:18;;;;;;;;;;;;;;;3.26;100.00;100284.78;5041739;28;19944;-81
2024/01/23 01:49:52;;;;;;;;;;;;;;;3.21;100.00;100291.69;5027243;28;19921;-81
2024/01/23 01:52:26;;;;;;;;;;;;;;;3.11;100.00;100288.00;5036921;28;20830;-82
2024/01/23 01:55:00;;;;;;;;;;;;;;;3.20;100.00;100297.31;5022143;28;19925;-81
2024/01/23 01:57:37;;;;;;;;;;;;;;;3.34;100.00;100295.16;5037860;28;19964;-80
2024/01/23 02:00:11;;;;;;;;;;;;;;;3.41;100.00;100306.56;5037313;28;19928;-81
2024/01/23 02:02:41;;;;;;;;;;;;;;;3.48;100.00;100304.56;5039438;28;19936;-82
2024/01/23 02:05:09;;;;;;;;;;;;;;;3.58;100.00;100314.69;5031450;28;20373;-82
2024/01/23 02:07:38;;;;;;;;;;;;;;;3.54;100.00;100327.00;5054191;28;19936;-82
2024/01/23 02:10:07;;;;;;;;;;;;;;;3.54;100.00;100321.63;5058692;28;19927;-82
2024/01/23 02:12:40;;;;;;;;;;;;;;;3.37;100.00;100321.56;5038889;28;19925;-82
2024/01/23 02:15:13;;;;;;;;;;;;;;;3.36;100.00;100330.72;5056873;28;19924;-81
2024/01/23 02:17:46;;;;;;;;;;;;;;;3.34;100.00;100344.41;5059324;28;19925;-82
2024/01/23 02:20:13;;;;;;;;;;;;;;;3.40;100.00;100335.34;5038691;28;19943;-79
2024/01/23 02:22:48;;;;;;;;;;;;;;;3.43;100.00;100336.75;5037107;28;19929;-82
2024/01/23 02:25:17;;;;;;;;;;;;;;;3.28;100.00;100334.59;5041509;28;19920;-82
2024/01/23 02:27:50;;;;;;;;;;;;;;;3.17;100.00;100338.16;5035647;28;19925;-80
2024/01/23 02:30:18;;;;;;;;;;;;;;;3.11;100.00;100331.84;5038442;28;19935;-82
2024/01/23 02:32:51;;;;;;;;;;;;;;;3.11;100.00;100337.22;5040902;28;19921;-82
2024/01/23 02:35:24;;;;;;;;;;;;;;;3.11;100.00;100331.84;5054649;28;19927;-82
2024/01/23 02:37:57;;;;;;;;;;;;;;;3.15;100.00;100342.94;5029488;28;19932;-82
2024/01/23 02:40:32;;;;;;;;;;;;;;;3.29;100.00;100330.03;5030649;28;19925;-81
2024/01/23 02:43:04;;;;;;;;;;;;;;;3.34;100.00;100347.09;5040086;28;19921;-81
2024/01/23 02:45:33;;;;;;;;;;;;;;;3.33;100.00;100337.38;5040973;28;19929;-82
2024/01/23 02:48:06;;;;;;;;;;;;;;;3.40;100.00;100340.75;5036752;28;19932;-83
2024/01/23 02:50:39;;;;;;;;;;;;;;;3.49;100.00;100343.03;5039989;28;19921;-81
2024/01/23 02:53:07;;;;;;;;;;;;;;;3.52;100.00;100342.56;5039494;28;19920;-82
2024/01/23 02:55:42;;;;;;;;;;;;;;;3.62;100.00;100344.63;5042894;28;19945;-81
2024/01/23 02:58:15;;;;;;;;;;;;;;;3.61;100.00;100343.00;5036719;28;19928;-82
2024/01/23 03:00:48;;;;;;;;;;;;;;;3.66;100.00;100340.38;5037462;28;20304;-82
2024/01/23 03:03:21;;;;;;;;;;;;;;;3.65;100.00;100336.88;5054909;28;19924;-81
2024/01/23 03:05:49;;;;;;;;;;;;;;;3.67;100.00;100339.34;5038108;28;19932;-82
2024/01/23 03:08:22;;;;;;;;;;;;;;;3.63;100.00;100328.22;5042012;28;19928;-83
2024/01/23 03:10:52;;;;;;;;;;;;;;;3.62;100.00;100350.84;5023443;28;19925;-81
2024/01/23 03:13:25;;;;;;;;;;;;;;;3.66;100.00;100340.38;5047126;28;19935;-82
2024/01/23 03:15:58;;;;;;;;;;;;;;;3.69;100.00;100354.19;5022481;28;19928;-82
2024/01/23 03:18:26;;;;;;;;;;;;;;;3.66;100.00;100356.53;5021731;28;19925;-82
2024/01/23 03:20:54;;;;;;;;;;;;;;;3.68;100.00;100360.63;5034586;28;19940;-82
2024/01/23 03:23:22;;;;;;;;;;;;;;;3.69;100.00;100353.38;5042685;28;19920;-82
2024/01/23 03:25:56;;;;;;;;;;;;;;;3.65;100.00;100365.69;5039144;28;19948;-82
2024/01/23 03:28:29;;;;;;;;;;;;;;;3.81;100.00;100380.22;5040108;28;20425;-82
2024/01/23 03:31:03;;;;;;;;;;;;;;;3.77;100.00;100376.38;5021069;28;19921;-82
2024/01/23 03:33:36;;;;;;;;;;;;;;;3.83;100.00;100378.13;5023061;28;20554;-82
2024/01/23 03:36:09;;;;;;;;;;;;;;;3.84;100.00;100391.31;5039517;28;20324;-82
2024/01/23 03:38:42;;;;;;;;;;;;;;;3.76;100.00;100402.47;5036517;28;19932;-82
2024/01/23 03:41:16;;;;;;;;;;;;;;;3.87;100.00;100398.91;5037369;28;19929;-82
2024/01/23 03:43:49;;;;;;;;;;;;;;;3.90;100.00;100401.09;5041455;28;19920;-82
2024/01/23 03:46:22;;;;;;;;;;;;;;;3.84;100.00;100407.47;5019461;28;19924;-82
2024/01/23 03:48:55;;;;;;;;;;;;;;;3.88;100.00;100405.94;5024443;28;19928;-82
2024/01/23 03:51:28;;;;;;;;;;;;;;;3.96;100.00;100402.00;5040704;28;19921;-80
2024/01/23 03:54:01;;;;;;;;;;;;;;;3.92;100.00;100407.09;5026368;28;19931;-82
2024/01/23 03:56:31;;;;;;;;;;;;;;;3.97;100.00;100417.13;5040354;28;19940;-81
2024/01/23 03:58:59;;;;;;;;;;;;;;;3.89;100.00;100412.97;5041992;28;19928;-82
2024/01/23 04:01:27;;;;;;;;;;;;;;;3.95;100.00;100421.09;5026039;28;20396;-82
2024/01/23 04:03:55;;;;;;;;;;;;;;;3.92;100.00;100409.78;5033511;28;19979;-82
2024/01/23 04:06:23;;;;;;;;;;;;;;;4.05;100.00;100421.31;5039777;28;19928;-82
2024/01/23 04:08:57;;;;;;;;;;;;;;;4.11;100.00;100428.41;5041057;28;19932;-82
2024/01/23 04:11:32;;;;;;;;;;;;;;;4.09;100.00;100434.03;5040306;28;19928;-82
2024/01/23 04:14:05;;;;;;;;;;;;;;;4.18;100.00;100439.81;5043287;28;20347;-80
2024/01/23 04:16:38;;;;;;;;;;;;;;;4.15;100.00;100436.81;5050618;28;20281;-82
2024/01/23 04:19:10;;;;;;;;;;;;;;;4.11;100.00;100435.66;5056702;28;20015;-82
2024/01/23 04:21:39;;;;;;;;;;;;;;;4.14;100.00;100444.06;5040987;28;19967;-82
2024/01/23 04:24:11;;;;;;;;;;;;;;;4.04;100.00;100444.69;5056677;28;19932;-80
2024/01/23 04:26:44;;;;;;;;;;;;;;;4.01;100.00;100442.50;5040967;28;20392;-82
2024/01/23 04:29:12;;;;;;;;;;;;;;;4.02;100.00;100457.59;5037211;28;19925;-81
2024/01/23 04:31:45;;;;;;;;;;;;;;;3.94;100.00;100459.88;5037554;28;20175;-82
2024/01/23 04:34:18;;;;;;;;;;;;;;;3.92;100.00;100469.00;5057157;28;19929;-81
2024/01/23 04:36:51;;;;;;;;;;;;;;;3.90;100.00;100464.91;5021271;28;19925;-82
2024/01/23 04:39:24;;;;;;;;;;;;;;;3.97;100.00;100470.97;5037632;28;19920;-81
2024/01/23 04:41:53;;;;;;;;;;;;;;;3.93;100.00;100469.81;5035875;28;19929;-82
2024/01/23 04:44:26;;;;;;;;;;;;;;;3.99;100.00;100473.41;5041936;28;19935;-81
2024/01/23 04:46:54;;;;;;;;;;;;;;;3.94;100.00;100466.06;5025272;28;19932;-82
2024/01/23 04:49:22;;;;;;;;;;;;;;;3.99;100.00;100468.88;5036304;28;19929;-82
2024/01/23 04:51:55;;;;;;;;;;;;;;;3.95;100.00;100472.25;5040671;28;19925;-81
2024/01/23 04:54:23;;;;;;;;;;;;;;;3.92;100.00;100471.69;5039256;28;19929;-80
2024/01/23 04:56:57;;;;;;;;;;;;;;;3.97;100.00;100499.78;5038764;28;19929;-82
2024/01/23 04:59:30;;;;;;;;;;;;;;;4.00;100.00;100508.19;5038718;28;19921;-81
2024/01/23 05:01:58;;;;;;;;;;;;;;;3.99;100.00;100511.94;5039052;28;19935;-81
2024/01/23 05:04:32;;;;;;;;;;;;;;;4.01;100.00;100500.94;5039548;28;20819;-81
2024/01/23 05:06:59;;;;;;;;;;;;;;;4.13;100.00;100522.41;5056704;28;19925;-82
2024/01/23 05:09:32;;;;;;;;;;;;;;;4.17;100.00;100521.72;5041633;28;19921;-82
2024/01/23 05:12:07;;;;;;;;;;;;;;;4.21;100.00;100525.56;5038737;28;20281;-82
2024/01/23 05:14:35;;;;;;;;;;;;;;;4.21;100.00;100546.28;5029284;28;20227;-82
2024/01/23 05:17:03;;;;;;;;;;;;;;;4.17;100.00;100534.34;5038219;28;19936;-80
2024/01/23 05:19:36;;;;;;;;;;;;;;;4.19;100.00;100533.03;5038822;28;19929;-80
2024/01/23 05:22:09;;;;;;;;;;;;;;;4.24;100.00;100533.16;5027415;28;19925;-82
2024/01/23 05:24:37;;;;;;;;;;;;;;;4.28;100.00;100535.34;5035610;28;20446;-80
2024/01/23 05:27:07;;;;;;;;;;;;;;;4.30;100.00;100542.13;5039813;28;19931;-83
2024/01/23 05:29:40;;;;;;;;;;;;;;;4.36;100.00;100559.22;5037930;28;19921;-81
2024/01/23 05:32:08;;;;;;;;;;;;;;;4.31;100.00;100548.34;5038268;28;19928;-82
2024/01/23 05:34:40;;;;;;;;;;;;;;;4.28;100.00;100546.97;5044911;28;19932;-82
2024/01/23 05:37:14;;;;;;;;;;;;;;;4.22;100.00;100567.56;5025375;28;19921;-82
2024/01/23 05:39:47;;;;;;;;;;;;;;;4.16;100.00;100565.84;5046052;28;19928;-81
2024/01/23 05:42:21;;;;;;;;;;;;;;;4.13;100.00;100571.72;5044818;28;19928;-81
2024/01/23 05:44:55;;;;;;;;;;;;;;;4.03;100.00;100575.03;5043516;28;19924;-81
2024/01/23 05:47:23;;;;;;;;;;;;;;;4.03;100.00;100568.81;5024097;28;19947;-82
2024/01/23 05:49:56;;;;;;;;;;;;;;;4.05;100.00;100570.22;5041514;28;19943;-80
2024/01/23 05:52:29;;;;;;;;;;;;;;;4.08;100.00;100579.69;5042642;28;19920;-80
2024/01/23 05:55:03;;;;;;;;;;;;;;;4.12;100.00;100585.44;5030387;28;19921;-81
2024/01/23 05:57:38;;;;;;;;;;;;;;;4.06;100.00;100590.72;5045960;28;19936;-80
2024/01/23 06:00:13;;;;;;;;;;;;;;;4.05;100.00;100601.72;5041410;28;19920;-81
2024/01/23 06:02:46;;;;;;;;;;;;;;;4.00;100.00;100607.00;5037987;28;19928;-80
2024/01/23 06:05:20;;;;;;;;;;;;;;;3.97;100.00;100623.63;5024346;28;20492;-79
2024/01/23 06:07:53;;;;;;;;;;;;;;;4.01;100.00;100628.31;5043241;28;20389;-80
2024/01/23 06:10:26;;;;;;;;;;;;;;;4.01;100.00;100632.88;5027974;28;19935;-82
2024/01/23 06:12:55;;;;;;;;;;;;;;;3.86;100.00;100626.09;5043390;28;19936;-82
2024/01/23 06:15:23;;;;;;;;;;;;;;;3.92;100.00;100606.31;5038207;28;19932;-86
2024/01/23 06:17:51;;;;;;;;;;;;;;;3.94;100.00;100630.31;5039132;28;19925;-81
2024/01/23 06:20:24;;;;;;;;;;;;;;;3.88;100.00;100626.69;5035377;28;20377;-81
2024/01/23 06:22:52;;;;;;;;;;;;;;;3.89;100.00;100633.72;5039728;28;20289;-82
2024/01/23 06:25:20;;;;;;;;;;;;;;;3.90;100.00;100631.84;5022469;28;19936;-81
2024/01/23 06:27:48;;;;;;;;;;;;;;;3.94;100.00;100642.97;5038005;28;19929;-80
2024/01/23 06:30:23;;;;;;;;;;;;;;;3.90;100.00;100650.69;5035703;28;19943;-81
2024/01/23 06:32:50;;;;;;;;;;;;;;;3.89;100.00;100649.88;5040084;28;19921;-81
2024/01/23 06:35:23;;;;;;;;;;;;;;;3.89;100.00;100647.19;5035301;28;19925;-80
2024/01/23 06:37:51;;;;;;;;;;;;;;;3.87;100.00;100653.84;5036243;28;19932;-82
2024/01/23 06:40:19;;;;;;;;;;;;;;;3.84;100.00;100659.69;5034760;28;19947;-80
2024/01/23 06:42:52;;;;;;;;;;;;;;;3.88;100.00;100656.31;5038601;28;19925;-80
2024/01/23 06:45:27;;;;;;;;;;;;;;;3.84;100.00;100659.69;5045611;28;19928;-81
2024/01/23 06:47:55;;;;;;;;;;;;;;;3.92;100.00;100665.56;5042883;28;19921;-81
2024/01/23 06:50:22;;;;;;;;;;;;;;;3.93;100.00;100671.75;5039400;28;20389;-80
2024/01/23 06:52:50;;;;;;;;;;;;;;;3.94;100.00;100668.00;5042524;28;20550;-81
2024/01/23 06:55:18;;;;;;;;;;;;;;;3.95;100.00;100669.66;5024931;28;19932;-81
2024/01/23 06:57:46;;;;;;;;;;;;;;;3.99;100.00;100686.13;5043428;28;19928;-81
2024/01/23 07:00:19;;;;;;;;;;;;;;;3.99;100.00;100692.38;5041316;28;19921;-81
2024/01/23 07:02:54;;;;;;;;;;;;;;;3.97;100.00;100696.34;5039605;28;20358;-80
2024/01/23 07:05:27;;;;;;;;;;;;;;;3.97;100.00;100694.47;5036695;28;19924;-81
2024/01/23 07:08:00;;;;;;;;;;;;;;;4.00;100.00;100698.56;5036362;28;19933;-81
2024/01/23 07:10:33;;;;;;;;;;;;;;;4.01;100.00;100708.28;5041614;28;20369;-80
2024/01/23 07:13:01;;;;;;;;;;;;;;;4.00;100.00;100710.13;5041915;28;19924;-80
2024/01/23 07:15:29;;;;;;;;;;;;;;;4.06;100.00;100722.69;5035542;28;19929;-80
2024/01/23 07:18:03;;;;;;;;;;;;;;;4.06;100.00;100714.59;5055174;28;19921;-78
2024/01/23 07:20:36;;;;;;;;;;;;;;;4.06;100.00;100717.28;5042432;28;19924;-80
2024/01/23 07:23:09;;;;;;;;;;;;;;;4.12;100.00;100720.09;5038145;28;19932;-80
2024/01/23 07:25:42;;;;;;;;;;;;;;;4.15;100.00;100733.09;5035059;28;20305;-79
2024/01/23 07:28:15;;;;;;;;;;;;;;;4.15;100.00;100752.75;5036839;28;19928;-82
2024/01/23 07:30:43;;;;;;;;;;;;;;;4.17;100.00;100752.50;5028027;28;19937;-79
2024/01/23 07:33:12;;;;;;;;;;;;;;;4.23;100.00;100767.75;4977803;28;19935;-80
2024/01/23 07:35:40;;;;;;;;;;;;;;;4.23;100.00;100773.94;5023464;28;19928;-80
2024/01/23 07:38:13;;;;;;;;;;;;;;;4.21;100.00;100775.25;5027671;28;19929;-80
2024/01/23 07:40:41;;;;;;;;;;;;;;;4.31;100.00;100775.47;5025120;28;19931;-80
2024/01/23 07:43:14;;;;;;;;;;;;;;;4.35;100.00;100798.19;5028448;28;20534;-79
2024/01/23 07:45:47;;;;;;;;;;;;;;;4.30;100.00;100816.13;5023019;28;20920;-79
2024/01/23 07:48:16;;;;;;;;;;;;;;;4.40;100.00;100816.34;5020563;28;19928;-78
2024/01/23 07:50:49;;;;;;;;;;;;;;;4.47;100.00;100816.22;5015375;28;19929;-79
2024/01/23 07:53:22;;;;;;;;;;;;;;;4.54;100.00;100828.53;5021001;28;20704;-79
2024/01/23 07:55:55;;;;;;;;;;;;;;;4.53;100.00;100839.53;5018277;28;20978;-78
2024/01/23 07:58:28;;;;;;;;;;;;;;;4.52;100.00;100843.31;5025623;28;20219;-80
2024/01/23 08:00:57;;;;;;;;;;;;;;;4.58;100.00;100853.13;5018814;28;19935;-79
2024/01/23 08:03:33;;;;;;;;;;;;;;;4.58;100.00;100853.13;5007204;28;21347;-78
2024/01/23 08:06:06;;;;;;;;;;;;;;;4.53;100.00;100863.78;5019704;28;19928;-78
2024/01/23 08:08:34;;;;;;;;;;;;;;;4.60;100.00;100870.72;5021413;28;20613;-79
2024/01/23 08:11:02;;;;;;;;;;;;;;;4.58;100.00;100883.63;5024235;28;20377;-79
2024/01/23 08:13:35;;;;;;;;;;;;;;;4.74;100.00;100875.88;5037386;28;19925;-79
2024/01/23 08:16:08;;;;;;;;;;;;;;;4.71;100.00;100889.78;5023747;28;21629;-78
2024/01/23 08:18:42;;;;;;;;;;;;;;;4.75;100.00;100899.06;5018703;28;19936;-79
2024/01/23 08:21:17;;;;;;;;;;;;;;;4.74;100.00;100895.56;5040530;28;19928;-83
2024/01/23 08:23:46;;;;;;;;;;;;;;;4.80;100.00;100907.25;5023884;28;19928;-80
2024/01/23 08:26:13;;;;;;;;;;;;;;;4.86;100.00;100917.13;5017936;28;19982;-80
2024/01/23 08:28:47;;;;;;;;;;;;;;;4.85;100.00;100922.75;5020382;28;19928;-80
2024/01/23 08:31:15;;;;;;;;;;;;;;;4.98;100.00;100937.88;4997015;28;19940;-80
2024/01/23 08:33:49;;;;;;;;;;;;;;;4.96;100.00;100942.66;5021669;28;20735;-79
2024/01/23 08:39:22;;;;;;;;;;;;;;;5.06;100.00;100948.28;5005594;28;19944;-79
2024/01/23 08:41:56;;;;;;;;;;;;;;;5.07;100.00;100961.53;5022942;28;19931;-80
2024/01/23 08:44:29;;;;;;;;;;;;;;;5.13;100.00;100997.53;5033856;28;20422;-81
2024/01/23 08:47:05;;;;;;;;;;;;;;;5.21;100.00;100970.22;5014371;28;19928;-80
2024/01/23 08:49:40;;;;;;;;;;;;;;;5.23;100.00;100992.41;5017001;28;19936;-79
2024/01/23 08:52:08;;;;;;;;;;;;;;;5.31;100.00;100975.00;5020343;28;20555;-80
2024/01/23 08:54:41;;;;;;;;;;;;;;;5.40;100.00;100987.06;5017144;28;19987;-79
2024/01/23 08:57:16;;;;;;;;;;;;;;;5.33;100.00;100982.84;5037262;28;19928;-78
2024/01/23 08:59:49;;;;;;;;;;;;;;;5.37;100.00;100986.72;5017051;28;20565;-80
2024/01/23 09:02:26;;;;;;;;;;;;;;;5.42;100.00;100984.13;4999048;28;19929;-80
2024/01/23 09:04:55;;;;;;;;;;;;;;;5.45;100.00;101007.94;5008942;28;19931;-80
2024/01/23 09:07:28;;;;;;;;;;;;;;;5.44;100.00;101006.31;5014992;28;20932;-80
2024/01/23 09:09:56;;;;;;;;;;;;;;;5.49;100.00;101014.50;5011198;28;19936;-79
2024/01/23 09:12:25;;;;;;;;;;;;;;;5.53;100.00;101028.38;5024055;28;21433;-80
2024/01/23 09:14:58;;;;;;;;;;;;;;;5.53;100.00;101031.88;5026712;28;19936;-80
2024/01/23 09:17:31;;;;;;;;;;;;;;;5.48;100.00;101044.44;5021433;28;19929;-79
2024/01/23 09:20:00;;;;;;;;;;;;;;;5.50;100.00;101042.34;5028615;28;20862;-80
2024/01/23 09:22:29;;;;;;;;;;;;;;;5.58;100.00;101050.09;5031890;28;19936;-79
2024/01/23 09:25:03;;;;;;;;;;;;;;;5.66;100.00;101055.09;5027870;28;19944;-80
2024/01/23 09:27:31;;;;;;;;;;;;;;;5.51;100.00;101058.31;5018181;28;19951;-79
2024/01/23 09:30:05;;;;;;;;;;;;;;;5.65;100.00;101064.28;5038564;28;20501;-79
2024/01/23 09:32:33;;;;;;;;;;;;;;;5.73;100.00;101082.81;4998422;28;19936;-81
2024/01/23 09:35:02;;;;;;;;;;;;;;;5.68;100.00;101074.59;5026960;28;20037;-81
2024/01/23 09:37:35;;;;;;;;;;;;;;;5.69;100.00;101087.03;5005754;28;19935;-82
2024/01/23 09:40:04;;;;;;;;;;;;;;;5.69;100.00;101094.31;5037720;28;19936;-79
2024/01/23 09:42:38;;;;;;;;;;;;;;;5.70;100.00;101117.56;5024307;28;20741;-80
2024/01/23 09:45:15;;;;;;;;;;;;;;;5.65;100.00;101115.56;4998677;28;19929;-78
2024/01/23 09:47:48;;;;;;;;;;;;;;;5.75;100.00;101115.78;5020404;28;19929;-79
2024/01/23 09:50:25;;;;;;;;;;;;;;;5.67;100.00;101120.75;5017492;28;19929;-78
2024/01/23 09:52:55;;;;;;;;;;;;;;;5.70;100.00;101123.78;5022248;28;19935;-78
2024/01/23 09:55:23;;;;;;;;;;;;;;;5.72;100.00;101132.47;5018206;28;19928;-78
2024/01/23 09:57:52;;;;;;;;;;;;;;;5.70;100.00;101129.16;5028073;28;19929;-80
2024/01/23 10:00:20;;;;;;;;;;;;;;;5.78;100.00;101133.41;5007247;28;19920;-79
2024/01/23 10:02:54;;;;;;;;;;;;;;;5.85;100.00;101131.38;5018827;28;20228;-81
2024/01/23 10:05:23;;;;;;;;;;;;;;;5.87;100.00;101133.84;5021304;28;19950;-79
2024/01/23 10:07:56;;;;;;;;;;;;;;;5.84;100.00;101139.72;5030261;28;19924;-80
2024/01/23 10:10:30;;;;;;;;;;;;;;;5.83;100.00;101147.03;5013757;28;19929;-79
2024/01/23 10:12:59;;;;;;;;;;;;;;;5.91;100.00;101141.25;5005603;28;19936;-79
2024/01/23 10:15:32;;;;;;;;;;;;;;;5.90;100.00;101141.50;5019970;28;19929;-79
2024/01/23 10:18:05;;;;;;;;;;;;;;;5.96;100.00;101172.97;5033686;28;19939;-80
2024/01/23 10:20:36;;;;;;;;;;;;;;;5.91;100.00;101176.38;5015151;28;21471;-79
2024/01/23 10:23:04;;;;;;;;;;;;;;;5.93;100.00;101186.94;4992160;28;19929;-80
2024/01/23 10:25:39;;;;;;;;;;;;;;;5.89;100.00;101177.66;5033394;28;19960;-79
2024/01/23 10:28:13;;;;;;;;;;;;;;;6.01;100.00;101199.28;5023953;28;19928;-80
2024/01/23 10:30:46;;;;;;;;;;;;;;;6.02;100.00;101196.38;5007851;28;19935;-80
2024/01/23 10:33:14;;;;;;;;;;;;;;;5.99;100.00;101196.00;5009363;28;19947;-79
2024/01/23 10:35:49;;;;;;;;;;;;;;;6.06;100.00;101186.75;5034373;28;19928;-79
2024/01/23 10:38:22;;;;;;;;;;;;;;;6.08;100.00;101183.78;5024312;28;20815;-79
2024/01/23 10:40:51;;;;;;;;;;;;;;;6.13;100.00;101189.28;5006312;28;19936;-79
2024/01/23 10:43:27;;;;;;;;;;;;;;;6.09;100.00;101196.22;5024948;28;19932;-80
2024/01/23 10:46:02;;;;;;;;;;;;;;;6.10;100.00;101198.72;5022475;28;19936;-79
2024/01/23 10:48:31;;;;;;;;;;;;;;;6.17;100.00;101195.84;5020151;28;19928;-80
2024/01/23 10:51:14;;;;;;;;;;;;;;;6.13;100.00;101192.84;5007662;28;20736;-81
2024/01/23 10:53:53;;;;;;;;;;;;;;;6.08;100.00;101198.13;5022896;28;19932;-79
2024/01/23 10:56:22;;;;;;;;;;;;;;;6.08;100.00;101210.81;5020805;28;19928;-81
2024/01/23 10:59:00;;;;;;;;;;;;;;;6.19;100.00;101211.88;5018079;28;19928;-80
2024/01/23 11:01:35;;;;;;;;;;;;;;;6.15;100.00;101219.63;5021839;28;20399;-78
2024/01/23 11:04:03;;;;;;;;;;;;;;;6.19;100.00;101215.38;5021099;28;19928;-80
2024/01/23 11:06:40;;;;;;;;;;;;;;;6.32;100.00;101216.19;5020287;28;19928;-82
2024/01/23 11:09:14;;;;;;;;;;;;;;;6.37;100.00;101214.41;5022182;28;19928;-79
2024/01/23 11:11:51;;;;;;;;;;;;;;;6.52;100.00;101216.59;5019082;28;19936;-80
2024/01/23 11:14:22;;;;;;;;;;;;;;;6.26;100.00;101226.06;5024486;28;19929;-80
2024/01/23 11:17:01;;;;;;;;;;;;;;;6.38;100.00;101223.31;4998900;28;19935;-80
2024/01/23 11:19:35;;;;;;;;;;;;;;;6.32;100.00;101230.50;5018084;28;19951;-79
2024/01/23 11:22:10;;;;;;;;;;;;;;;6.25;100.00;101229.81;4998687;28;19929;-80
2024/01/23 11:24:42;;;;;;;;;;;;;;;6.32;100.00;101224.28;5017867;28;19939;-82
2024/01/23 11:27:21;;;;;;;;;;;;;;;6.27;100.00;101231.22;5017924;28;19924;-79
2024/01/23 11:29:50;;;;;;;;;;;;;;;6.24;100.00;101220.91;5036791;28;19929;-81
2024/01/23 11:32:19;;;;;;;;;;;;;;;6.32;100.00;101238.63;4998866;28;19979;-80
2024/01/23 11:34:47;;;;;;;;;;;;;;;6.28;100.00;101230.19;5021085;28;19928;-80
2024/01/23 11:37:34;;;;;;;;;;;;;;;6.27;100.00;101230.38;5017628;28;19924;-79
2024/01/23 11:40:05;;;;;;;;;;;;;;;6.30;100.00;101232.66;5001674;28;19928;-81
2024/01/23 11:42:38;;;;;;;;;;;;;;;6.25;100.00;101235.22;5018087;28;20482;-79
2024/01/23 11:45:22;;;;;;;;;;;;;;;6.09;100.00;101232.19;5026520;28;19929;-82
2024/01/23 11:47:56;;;;;;;;;;;;;;;6.08;100.00;101240.53;5037107;28;19939;-82
2024/01/23 11:50:29;;;;;;;;;;;;;;;6.24;100.00;101238.97;5002475;28;19940;-82
2024/01/23 11:52:58;;;;;;;;;;;;;;;6.35;100.00;101240.84;4995394;28;19952;-81
2024/01/23 11:55:28;;;;;;;;;;;;;;;6.38;100.00;101250.34;5008994;28;19920;-80
2024/01/23 11:58:01;;;;;;;;;;;;;;;6.28;100.00;101251.81;5038567;28;19928;-82
2024/01/23 12:00:29;;;;;;;;;;;;;;;6.32;100.00;101238.63;5019705;28;19928;-80
2024/01/23 12:03:08;;;;;;;;;;;;;;;6.45;100.00;101248.38;5005287;28;19929;-80
2024/01/23 12:05:42;;;;;;;;;;;;;;;6.52;100.00;101248.22;5017246;28;19935;-82
2024/01/23 12:08:14;;;;;;;;;;;;;;;6.35;100.00;101240.84;5037711;28;19929;-80
2024/01/23 12:10:49;;;;;;;;;;;;;;;6.29;100.00;101249.91;5019712;28;19928;-80
2024/01/23 12:13:17;;;;;;;;;;;;;;;6.12;100.00;101241.72;5007949;28;19929;-81
2024/01/23 12:15:50;;;;;;;;;;;;;;;6.13;100.00;101255.00;5022579;28;19931;-80
2024/01/23 12:18:21;;;;;;;;;;;;;;;6.09;100.00;101247.56;5025009;28;19929;-81
2024/01/23 12:20:56;;;;;;;;;;;;;;;6.12;100.00;101252.53;4999907;28;19928;-81
2024/01/23 12:23:29;;;;;;;;;;;;;;;6.12;100.00;101245.22;5003949;28;19929;-82
2024/01/23 12:26:04;;;;;;;;;;;;;;;6.02;100.00;101252.28;5003647;28;19928;-80
2024/01/23 12:28:37;;;;;;;;;;;;;;;5.99;100.00;101256.25;5023991;28;19928;-81
2024/01/23 12:31:14;;;;;;;;;;;;;;;5.99;100.00;101253.56;5020341;28;19928;-81
2024/01/23 12:33:49;;;;;;;;;;;;;;;5.96;100.00;101256.72;5037266;28;19936;-81
2024/01/23 12:36:23;;;;;;;;;;;;;;;6.00;100.00;101259.81;5023319;28;21476;-80
2024/01/23 12:38:56;;;;;;;;;;;;;;;5.92;100.00;101264.47;5019823;28;20049;-80
2024/01/23 12:41:35;;;;;;;;;;;;;;;5.87;100.00;101240.03;5006456;28;19928;-79
2024/01/23 12:44:08;;;;;;;;;;;;;;;5.81;100.00;101253.66;5017906;28;19929;-79
2024/01/23 12:46:43;;;;;;;;;;;;;;;5.78;100.00;101253.03;5020751;28;19935;-80
2024/01/23 12:49:18;;;;;;;;;;;;;;;5.79;100.00;101265.50;5043246;28;19928;-79
2024/01/23 12:51:47;;;;;;;;;;;;;;;5.71;100.00;101241.53;5028384;28;19929;-81
2024/01/23 12:54:20;;;;;;;;;;;;;;;5.59;100.00;101249.66;5006085;28;19936;-80
2024/01/23 12:56:55;;;;;;;;;;;;;;;5.59;100.00;101246.09;5012100;28;19935;-79
2024/01/23 12:59:28;;;;;;;;;;;;;;;5.52;100.00;101257.00;5020361;28;19936;-80
2024/01/23 13:02:00;;;;;;;;;;;;;;;5.51;100.00;101249.13;5005770;28;19925;-81